createdAt,value
2023-05-05T00:01:57.272Z,0.80
2023-05-05T00:04:39.940Z,0.98
2023-05-05T00:07:22.524Z,1.05
2023-05-05T00:10:05.498Z,0.73
2023-05-05T00:12:48.322Z,1.00
2023-05-05T00:15:30.900Z,0.95
2023-05-05T00:18:15.718Z,0.90
2023-05-05T00:20:58.309Z,0.90
2023-05-05T00:23:41.121Z,0.90
2023-05-05T00:26:23.698Z,1.00
2023-05-05T00:29:08.380Z,1.13
2023-05-05T00:31:51.655Z,0.85
2023-05-05T00:34:36.908Z,0.85
2023-05-05T00:37:19.541Z,1.08
2023-05-05T00:40:02.389Z,0.82
2023-05-05T00:42:45.787Z,0.90
2023-05-05T00:45:28.602Z,0.95
2023-05-05T00:48:11.601Z,1.17
2023-05-05T00:50:55.580Z,0.90
2023-05-05T00:53:39.671Z,1.13
2023-05-05T00:56:23.206Z,0.95
2023-05-05T00:59:05.788Z,0.82
2023-05-05T01:01:48.508Z,0.93
2023-05-05T01:04:31.137Z,1.20
2023-05-05T01:07:19.565Z,1.15
2023-05-05T01:10:18.809Z,0.93
2023-05-05T01:13:07.777Z,1.30
2023-05-05T01:15:51.640Z,0.95
2023-05-05T01:18:38.547Z,1.05
2023-05-05T01:21:24.443Z,0.95
2023-05-05T01:24:28.134Z,1.13
2023-05-05T01:27:28.969Z,1.10
2023-05-05T01:30:18.267Z,1.15
2023-05-05T01:33:05.305Z,0.90
2023-05-05T01:35:51.273Z,0.98
2023-05-05T01:38:37.398Z,1.17
2023-05-05T01:41:24.166Z,1.02
2023-05-05T01:44:07.270Z,1.00
2023-05-05T01:46:51.342Z,1.17
2023-05-05T01:49:36.887Z,1.30
2023-05-05T01:52:20.133Z,1.30
2023-05-05T01:55:06.052Z,1.30
2023-05-05T01:57:49.880Z,0.93
2023-05-05T02:00:32.665Z,1.13
2023-05-05T02:03:16.661Z,1.10
2023-05-05T02:06:01.436Z,1.23
2023-05-05T02:08:45.775Z,1.45
2023-05-05T02:11:29.039Z,1.15
2023-05-05T02:14:13.299Z,1.10
2023-05-05T02:16:57.496Z,1.15
2023-05-05T02:19:41.309Z,1.10
2023-05-05T02:22:25.324Z,1.10
2023-05-05T02:25:08.482Z,1.38
2023-05-05T02:27:51.945Z,1.23
2023-05-05T02:30:36.412Z,1.23
2023-05-05T02:33:20.207Z,1.17
2023-05-05T02:36:07.665Z,1.23
2023-05-05T02:39:03.352Z,1.40
2023-05-05T02:41:49.732Z,1.25
2023-05-05T02:44:40.154Z,1.10
2023-05-05T02:47:23.719Z,1.40
2023-05-05T02:50:08.967Z,1.25
2023-05-05T02:52:54.744Z,1.70
2023-05-05T02:55:44.796Z,1.10
2023-05-05T02:58:30.885Z,1.23
2023-05-05T03:01:21.371Z,1.42
2023-05-05T03:04:07.292Z,1.30
2023-05-05T03:06:57.022Z,1.50
2023-05-05T03:09:44.466Z,1.23
2023-05-05T03:12:31.509Z,1.50
2023-05-05T03:15:29.998Z,1.40
2023-05-05T03:18:15.522Z,1.65
2023-05-05T03:21:07.899Z,1.60
2023-05-05T03:23:52.592Z,1.50
2023-05-05T03:26:38.106Z,1.65
2023-05-05T03:29:22.244Z,1.58
2023-05-05T03:32:05.225Z,1.73
2023-05-05T03:34:48.417Z,1.88
2023-05-05T03:37:31.112Z,1.77
2023-05-05T03:40:14.382Z,1.80
2023-05-05T03:42:57.172Z,2.10
2023-05-05T03:45:41.291Z,2.15
2023-05-05T03:48:24.377Z,2.00
2023-05-05T03:51:07.644Z,2.08
2023-05-05T03:53:51.112Z,2.17
2023-05-05T03:56:34.060Z,2.35
2023-05-05T03:59:17.291Z,2.17
2023-05-05T04:02:01.687Z,2.45
2023-05-05T04:04:44.349Z,2.40
2023-05-05T04:07:27.077Z,2.40
2023-05-05T04:10:10.543Z,2.70
2023-05-05T04:12:53.949Z,2.67
2023-05-05T04:15:36.772Z,2.53
2023-05-05T04:18:20.774Z,2.80
2023-05-05T04:21:03.518Z,2.75
2023-05-05T04:23:46.178Z,2.80
2023-05-05T04:26:28.843Z,2.78
2023-05-05T04:29:11.984Z,2.83
2023-05-05T04:31:56.235Z,2.80
2023-05-05T04:34:40.436Z,2.83
2023-05-05T04:37:23.289Z,2.75
2023-05-05T04:40:06.811Z,2.35
2023-05-05T04:42:51.538Z,3.20
2023-05-05T04:45:34.500Z,2.70
2023-05-05T04:48:17.332Z,2.75
2023-05-05T04:51:04.530Z,3.33
2023-05-05T04:53:47.435Z,2.78
2023-05-05T04:56:31.757Z,2.85
2023-05-05T04:59:17.056Z,3.13
2023-05-05T05:01:59.708Z,2.70
2023-05-05T05:04:42.386Z,2.75
2023-05-05T05:07:26.795Z,2.83
2023-05-05T05:10:10.015Z,3.30
2023-05-05T05:12:52.861Z,2.90
2023-05-05T05:15:38.043Z,2.70
2023-05-05T05:18:21.228Z,2.85
2023-05-05T05:21:05.536Z,3.03
2023-05-05T05:23:50.834Z,3.17
2023-05-05T05:26:34.157Z,3.33
2023-05-05T05:29:16.835Z,2.50
2023-05-05T05:31:59.577Z,2.60
2023-05-05T05:34:42.370Z,3.42
2023-05-05T05:37:29.545Z,2.97
2023-05-05T05:40:14.202Z,2.60
2023-05-05T05:42:57.263Z,2.95
2023-05-05T05:45:41.376Z,2.85
2023-05-05T05:48:28.340Z,3.00
2023-05-05T05:51:11.740Z,3.03
2023-05-05T05:53:55.099Z,2.88
2023-05-05T05:56:40.399Z,2.63
2023-05-05T05:59:23.085Z,2.97
2023-05-05T06:02:05.768Z,2.90
2023-05-05T06:04:48.970Z,2.78
2023-05-05T06:07:34.713Z,2.83
2023-05-05T06:10:27.463Z,2.45
2023-05-05T06:13:18.434Z,2.55
2023-05-05T06:16:04.561Z,2.80
2023-05-05T06:18:47.270Z,2.60
2023-05-05T06:21:29.998Z,2.50
2023-05-05T06:24:12.629Z,2.50
2023-05-05T06:26:55.321Z,2.83
2023-05-05T06:29:39.295Z,2.45
2023-05-05T06:32:21.924Z,3.00
2023-05-05T06:35:04.735Z,2.50
2023-05-05T06:37:47.409Z,2.25
2023-05-05T06:40:30.090Z,2.75
2023-05-05T06:43:12.679Z,2.33
2023-05-05T06:46:02.459Z,2.30
2023-05-05T06:48:45.093Z,3.08
2023-05-05T06:51:27.800Z,2.42
2023-05-05T06:54:10.397Z,2.40
2023-05-05T06:56:52.995Z,2.35
2023-05-05T06:59:36.417Z,2.38
2023-05-05T07:02:20.370Z,2.22
2023-05-05T07:05:03.015Z,2.58
2023-05-05T07:07:52.360Z,2.30
2023-05-05T07:10:35.015Z,2.30
2023-05-05T07:13:17.848Z,2.33
2023-05-05T07:16:00.870Z,2.45
2023-05-05T07:18:44.855Z,2.75
2023-05-05T07:21:27.527Z,2.17
2023-05-05T07:24:10.137Z,2.45
2023-05-05T07:26:52.755Z,2.47
2023-05-05T07:29:35.447Z,2.47
2023-05-05T07:32:18.170Z,2.60
2023-05-05T07:35:02.196Z,2.40
2023-05-05T07:37:45.234Z,2.67
2023-05-05T07:40:27.892Z,2.25
2023-05-05T07:43:10.700Z,2.72
2023-05-05T07:45:53.360Z,2.80
2023-05-05T07:48:36.024Z,2.67
2023-05-05T07:51:21.433Z,2.20
2023-05-05T07:54:04.136Z,2.30
2023-05-05T07:56:46.888Z,2.65
2023-05-05T07:59:29.732Z,2.53
2023-05-05T08:02:13.070Z,2.63
2023-05-05T08:04:56.008Z,2.92
2023-05-05T08:07:41.533Z,2.22
2023-05-05T08:10:26.607Z,2.53
2023-05-05T08:13:09.282Z,2.63
2023-05-05T08:15:53.524Z,2.30
2023-05-05T08:18:37.639Z,2.60
2023-05-05T08:21:20.333Z,2.25
2023-05-05T08:24:04.569Z,2.45
2023-05-05T08:26:47.239Z,3.03
2023-05-05T08:29:29.881Z,2.72
2023-05-05T08:32:12.581Z,2.75
2023-05-05T08:34:55.171Z,2.25
2023-05-05T08:37:37.865Z,2.70
2023-05-05T08:40:25.028Z,2.30
2023-05-05T08:43:07.677Z,2.15
2023-05-05T08:45:51.237Z,2.78
2023-05-05T08:48:34.600Z,2.25
2023-05-05T08:51:18.661Z,2.72
2023-05-05T08:54:03.688Z,2.47
2023-05-05T08:56:48.053Z,2.60
2023-05-05T08:59:32.860Z,2.60
2023-05-05T09:02:16.954Z,2.35
2023-05-05T09:05:00.648Z,2.30
2023-05-05T09:07:44.062Z,2.60
2023-05-05T09:10:29.564Z,2.78
2023-05-05T09:13:13.743Z,2.53
2023-05-05T09:15:56.467Z,2.90
2023-05-05T09:18:43.894Z,2.70
2023-05-05T09:21:27.787Z,2.50
2023-05-05T09:24:11.104Z,2.45
2023-05-05T09:26:56.901Z,2.58
2023-05-05T09:29:49.663Z,2.13
2023-05-05T09:32:32.427Z,2.25
2023-05-05T09:35:15.221Z,2.45
2023-05-05T09:37:58.301Z,2.63
2023-05-05T09:40:45.727Z,2.63
2023-05-05T09:43:28.424Z,2.28
2023-05-05T09:46:12.980Z,2.45
2023-05-05T09:48:55.924Z,2.47
2023-05-05T09:51:38.751Z,2.58
2023-05-05T09:54:24.882Z,2.40
2023-05-05T09:57:07.526Z,1.95
2023-05-05T09:59:56.303Z,2.70
2023-05-05T10:02:40.626Z,2.50
2023-05-05T10:05:23.438Z,2.10
2023-05-05T10:08:13.109Z,2.88
2023-05-05T10:10:56.458Z,2.17
2023-05-05T10:13:41.844Z,2.30
2023-05-05T10:16:25.212Z,2.38
2023-05-05T10:19:10.048Z,2.15
2023-05-05T10:21:53.211Z,2.33
2023-05-05T10:24:39.737Z,2.20
2023-05-05T10:27:24.197Z,2.20
2023-05-05T10:30:08.072Z,2.08
2023-05-05T10:33:00.590Z,2.40
2023-05-05T10:35:51.602Z,2.25
2023-05-05T10:38:34.421Z,2.42
2023-05-05T10:41:17.202Z,2.03
2023-05-05T10:44:02.065Z,2.58
2023-05-05T10:46:47.209Z,2.10
2023-05-05T10:49:34.291Z,2.13
2023-05-05T10:52:24.531Z,2.45
2023-05-05T10:55:12.304Z,2.40
2023-05-05T10:57:54.952Z,2.22
2023-05-05T11:00:51.185Z,2.35
2023-05-05T11:03:34.264Z,2.20
2023-05-05T11:06:17.300Z,2.42
2023-05-05T11:09:21.283Z,2.28
2023-05-05T11:12:04.815Z,2.38
2023-05-05T11:14:47.468Z,2.20
2023-05-05T11:17:45.260Z,2.55
2023-05-05T11:20:43.585Z,2.58
2023-05-05T11:23:26.329Z,2.45
2023-05-05T11:26:10.600Z,2.35
2023-05-05T11:29:00.757Z,2.30
2023-05-05T11:31:43.418Z,2.35
2023-05-05T11:34:27.907Z,2.22
2023-05-05T11:37:10.627Z,2.13
2023-05-05T11:39:57.023Z,2.33
2023-05-05T11:42:41.083Z,2.30
2023-05-05T11:45:24.921Z,2.10
2023-05-05T11:48:26.395Z,2.25
2023-05-05T11:51:12.289Z,1.85
2023-05-05T11:53:55.707Z,2.10
2023-05-05T11:56:50.228Z,2.13
2023-05-05T11:59:34.650Z,2.00
2023-05-05T12:02:17.505Z,1.98
2023-05-05T12:05:01.227Z,1.90
2023-05-05T12:07:43.917Z,2.15
2023-05-05T12:10:26.683Z,2.22
2023-05-05T12:13:18.761Z,2.10
2023-05-05T12:16:10.973Z,2.17
2023-05-05T12:19:05.635Z,2.28
2023-05-05T12:21:48.298Z,2.10
2023-05-05T12:24:31.197Z,1.95
2023-05-05T12:27:13.893Z,2.28
2023-05-05T12:29:57.268Z,1.98
2023-05-05T12:32:41.535Z,2.03
2023-05-05T12:35:24.319Z,1.90
2023-05-05T12:38:06.978Z,2.10
2023-05-05T12:40:52.859Z,1.98
2023-05-05T12:43:36.045Z,1.90
2023-05-05T12:46:18.742Z,1.88
2023-05-05T12:49:05.428Z,1.95
2023-05-05T12:51:54.851Z,1.92
2023-05-05T12:54:53.590Z,2.00
2023-05-05T12:57:37.370Z,1.88
2023-05-05T13:00:20.974Z,1.80
2023-05-05T13:03:04.755Z,2.05
2023-05-05T13:05:48.798Z,1.90
2023-05-05T13:08:42.892Z,2.05
2023-05-05T13:11:25.554Z,1.70
2023-05-05T13:14:08.495Z,2.00
2023-05-05T13:16:51.154Z,1.90
2023-05-05T13:19:35.486Z,1.88
2023-05-05T13:22:19.517Z,1.92
2023-05-05T13:25:02.163Z,1.75
2023-05-05T13:27:44.816Z,1.92
2023-05-05T13:30:27.417Z,2.35
2023-05-05T13:33:10.098Z,2.00
2023-05-05T13:35:53.030Z,2.00
2023-05-05T13:38:37.353Z,2.40
2023-05-05T13:41:20.138Z,1.90
2023-05-05T13:44:02.788Z,2.00
2023-05-05T13:46:45.521Z,2.00
2023-05-05T13:49:28.259Z,2.20
2023-05-05T13:52:11.156Z,2.15
2023-05-05T13:54:55.127Z,1.80
2023-05-05T13:57:37.789Z,1.90
2023-05-05T14:00:20.821Z,2.35
2023-05-05T14:03:03.682Z,1.85
2023-05-05T14:05:46.359Z,2.22
2023-05-05T14:08:29.546Z,1.98
2023-05-05T14:11:13.843Z,2.00
2023-05-05T14:13:56.631Z,2.03
2023-05-05T14:16:39.309Z,1.80
2023-05-05T14:19:21.947Z,1.88
2023-05-05T14:22:04.555Z,2.28
2023-05-05T14:24:47.208Z,1.90
2023-05-05T14:27:31.217Z,1.90
2023-05-05T14:30:14.465Z,1.90
2023-05-05T14:32:57.165Z,1.70
2023-05-05T14:35:39.817Z,1.73
2023-05-05T14:38:22.577Z,1.98
2023-05-05T14:41:05.560Z,2.15
2023-05-05T14:43:49.496Z,2.35
2023-05-05T14:46:32.280Z,1.95
2023-05-05T14:49:14.920Z,2.08
2023-05-05T14:51:57.574Z,1.73
2023-05-05T14:54:40.227Z,1.50
2023-05-05T14:57:22.884Z,1.90
2023-05-05T15:00:07.899Z,1.90
2023-05-05T15:02:50.801Z,1.92
2023-05-05T15:05:33.485Z,1.70
2023-05-05T15:08:18.592Z,1.80
2023-05-05T15:11:01.300Z,1.88
2023-05-05T15:13:44.075Z,2.15
2023-05-05T15:16:28.201Z,2.10
2023-05-05T15:19:10.924Z,1.88
2023-05-05T15:21:54.109Z,1.88
2023-05-05T15:24:37.212Z,1.90
2023-05-05T15:27:19.837Z,1.50
2023-05-05T15:30:02.696Z,2.05
2023-05-05T15:32:46.851Z,1.90
2023-05-05T15:35:29.489Z,2.00
2023-05-05T15:38:12.133Z,1.80
2023-05-05T15:40:54.864Z,1.80
2023-05-05T15:43:37.777Z,2.08
2023-05-05T15:46:20.495Z,2.05
2023-05-05T15:49:04.629Z,2.10
2023-05-05T15:51:48.000Z,1.65
2023-05-05T15:54:30.746Z,1.60
2023-05-05T15:57:13.388Z,1.50
2023-05-05T15:59:56.082Z,1.90
2023-05-05T16:02:38.760Z,1.88
2023-05-05T16:05:23.271Z,1.73
2023-05-05T16:08:09.705Z,1.45
2023-05-05T16:10:52.630Z,1.98
2023-05-05T16:13:35.331Z,1.85
2023-05-05T16:16:18.011Z,2.10
2023-05-05T16:19:00.796Z,1.75
2023-05-05T16:21:44.795Z,1.60
2023-05-05T16:24:27.437Z,1.83
2023-05-05T16:27:10.103Z,1.60
2023-05-05T16:29:53.258Z,1.90
2023-05-05T16:32:35.968Z,1.52
2023-05-05T16:35:18.802Z,1.70
2023-05-05T16:38:02.843Z,1.40
2023-05-05T16:40:45.928Z,1.70
2023-05-05T16:43:28.658Z,1.55
2023-05-05T16:46:11.464Z,1.55
2023-05-05T16:48:54.303Z,1.80
2023-05-05T16:51:36.918Z,1.80
2023-05-05T16:54:20.902Z,1.45
2023-05-05T16:57:03.699Z,1.80
2023-05-05T16:59:46.348Z,1.77
2023-05-05T17:02:28.999Z,1.88
2023-05-05T17:05:11.909Z,1.55
2023-05-05T17:07:57.573Z,1.52
2023-05-05T17:10:42.164Z,1.73
2023-05-05T17:13:24.946Z,1.80
2023-05-05T17:16:07.784Z,1.92
2023-05-05T17:18:53.336Z,1.92
2023-05-05T17:21:36.260Z,1.80
2023-05-05T17:24:18.936Z,1.67
2023-05-05T17:27:03.247Z,1.60
2023-05-05T17:29:45.915Z,2.03
2023-05-05T17:32:28.612Z,1.92
2023-05-05T17:35:11.892Z,1.70
2023-05-05T17:37:54.519Z,2.00
2023-05-05T17:40:37.161Z,1.73
2023-05-05T17:43:21.169Z,1.70
2023-05-05T17:46:03.840Z,1.83
2023-05-05T17:48:46.626Z,1.52
2023-05-05T17:51:29.338Z,1.73
2023-05-05T17:54:11.978Z,1.70
2023-05-05T17:56:54.996Z,1.70
2023-05-05T17:59:39.019Z,1.90
2023-05-05T18:02:21.729Z,1.90
2023-05-05T18:05:04.581Z,1.85
2023-05-05T18:07:47.679Z,2.00
2023-05-05T18:10:30.382Z,2.03
2023-05-05T18:13:13.045Z,1.98
2023-05-05T18:15:57.046Z,1.70
2023-05-05T18:18:40.534Z,2.03
2023-05-05T18:21:23.293Z,1.60
2023-05-05T18:24:18.745Z,1.70
2023-05-05T18:27:02.843Z,1.77
2023-05-05T18:29:45.465Z,2.13
2023-05-05T18:32:29.496Z,1.75
2023-05-05T18:35:12.680Z,1.70
2023-05-05T18:37:55.561Z,1.85
2023-05-05T18:40:38.309Z,1.63
2023-05-05T18:43:21.011Z,1.83
2023-05-05T18:46:04.084Z,1.58
2023-05-05T18:48:48.331Z,1.90
2023-05-05T18:51:32.146Z,1.90
2023-05-05T18:54:14.834Z,2.10
2023-05-05T18:56:57.508Z,1.77
2023-05-05T18:59:40.118Z,1.92
2023-05-05T19:02:22.768Z,1.67
2023-05-05T19:05:07.718Z,1.80
2023-05-05T19:07:50.447Z,1.65
2023-05-05T19:10:33.107Z,1.55
2023-05-05T19:13:16.214Z,1.85
2023-05-05T19:15:59.004Z,1.90
2023-05-05T19:18:41.701Z,1.50
2023-05-05T19:21:25.637Z,1.92
2023-05-05T19:24:09.120Z,1.70
2023-05-05T19:26:51.768Z,1.67
2023-05-05T19:29:34.431Z,1.95
2023-05-05T19:32:17.127Z,1.58
2023-05-05T19:34:59.869Z,1.60
2023-05-05T19:37:43.834Z,1.90
2023-05-05T19:40:26.488Z,1.73
2023-05-05T19:43:10.389Z,1.70
2023-05-05T19:45:53.055Z,1.42
2023-05-05T19:48:35.684Z,1.48
2023-05-05T19:51:18.377Z,1.73
2023-05-05T19:54:02.365Z,1.52
2023-05-05T19:56:44.967Z,1.65
2023-05-05T19:59:27.588Z,1.70
2023-05-05T20:02:11.512Z,1.40
2023-05-05T20:04:54.147Z,1.70
2023-05-05T20:07:36.798Z,1.58
2023-05-05T20:10:20.829Z,1.90
2023-05-05T20:13:03.528Z,1.50
2023-05-05T20:15:46.299Z,1.58
2023-05-05T20:18:29.051Z,1.80
2023-05-05T20:21:11.729Z,1.33
2023-05-05T20:23:55.037Z,1.70
2023-05-05T20:26:39.034Z,1.75
2023-05-05T20:29:22.105Z,1.83
2023-05-05T20:32:05.501Z,1.70
2023-05-05T20:34:48.464Z,1.80
2023-05-05T20:37:31.117Z,1.60
2023-05-05T20:40:14.265Z,1.90
2023-05-05T20:42:58.216Z,1.73
2023-05-05T20:45:41.191Z,1.60
2023-05-05T20:48:23.890Z,1.50
2023-05-05T20:51:06.584Z,1.70
2023-05-05T20:53:49.250Z,1.80
2023-05-05T20:56:31.889Z,1.65
2023-05-05T20:59:15.836Z,1.80
2023-05-05T21:01:58.687Z,1.98
2023-05-05T21:04:41.369Z,1.73
2023-05-05T21:07:24.044Z,1.73
2023-05-05T21:10:07.435Z,1.60
2023-05-05T21:12:50.208Z,1.40
2023-05-05T21:15:37.176Z,1.50
2023-05-05T21:18:19.911Z,1.58
2023-05-05T21:21:02.525Z,1.63
2023-05-05T21:23:47.276Z,1.40
2023-05-05T21:26:29.951Z,1.80
2023-05-05T21:29:12.806Z,1.83
2023-05-05T21:31:56.815Z,1.90
2023-05-05T21:34:39.700Z,1.77
2023-05-05T21:37:22.321Z,1.70
2023-05-05T21:40:05.851Z,1.67
2023-05-05T21:42:48.489Z,1.75
2023-05-05T21:45:32.284Z,1.70
2023-05-05T21:48:16.363Z,1.60
2023-05-05T21:50:59.088Z,1.63
2023-05-05T21:53:41.751Z,1.67
2023-05-05T21:56:24.367Z,1.55
2023-05-05T21:59:07.161Z,1.77
2023-05-05T22:01:50.014Z,1.77
2023-05-05T22:04:34.099Z,1.58
2023-05-05T22:07:16.703Z,1.73
2023-05-05T22:09:59.393Z,1.70
2023-05-05T22:12:42.073Z,1.80
2023-05-05T22:15:27.643Z,1.60
2023-05-05T22:18:12.758Z,1.60
2023-05-05T22:20:56.915Z,2.03
2023-05-05T22:23:41.758Z,1.73
2023-05-05T22:26:26.097Z,1.70
2023-05-05T22:29:08.855Z,1.45
2023-05-05T22:31:51.810Z,1.38
2023-05-05T22:34:35.294Z,1.60
2023-05-05T22:37:19.380Z,1.55
2023-05-05T22:40:02.110Z,1.63
2023-05-05T22:42:44.864Z,2.22
2023-05-05T22:45:27.501Z,1.60
2023-05-05T22:48:10.210Z,1.73
2023-05-05T22:50:52.904Z,1.55
2023-05-05T22:53:36.946Z,1.88
2023-05-05T22:56:19.551Z,1.92
2023-05-05T22:59:02.156Z,1.83
2023-05-05T23:01:44.779Z,1.80
2023-05-05T23:04:27.457Z,1.75
2023-05-05T23:07:10.259Z,1.90
2023-05-05T23:09:54.299Z,1.70
2023-05-05T23:12:36.886Z,1.90
2023-05-05T23:15:19.542Z,1.70
2023-05-05T23:18:02.159Z,1.80
2023-05-05T23:20:44.821Z,1.60
2023-05-05T23:23:27.660Z,1.60
2023-05-05T23:26:11.928Z,1.55
2023-05-05T23:28:54.512Z,2.03
2023-05-05T23:31:37.117Z,1.42
2023-05-05T23:34:19.739Z,1.80
2023-05-05T23:37:04.033Z,1.77
2023-05-05T23:39:48.606Z,1.70
2023-05-05T23:42:32.564Z,1.85
2023-05-05T23:45:16.402Z,1.70
2023-05-05T23:48:00.297Z,1.70
2023-05-05T23:50:42.930Z,1.75
2023-05-05T23:53:25.560Z,1.65
2023-05-05T23:56:08.310Z,1.85
2023-05-05T23:58:52.411Z,1.70
